Time;durP1;ratioP1;P1;durP2;ratioP2;P2;SDS_P1;SDS_P2;PMS_P1;PMS_P2;Temp;Humidity;BMP_temperature;BMP_pressure;BME280_temperature;BME280_humidity;BME280_pressure;Samples;Min_cycle;Max_cycle;Signal;HPM_P1;HPM_P2
2024/02/17 00:01:28;;;;;;;;;;;;;;;7.48;100.00;101906.00;5133975;27;20424;-81
2024/02/17 00:03:53;;;;;;;;;;;;;;;7.54;100.00;101908.09;5128401;27;19949;-80
2024/02/17 00:06:18;;;;;;;;;;;;;;;7.49;100.00;101916.59;5122975;27;19928;-80
2024/02/17 00:08:43;;;;;;;;;;;;;;;7.42;100.00;101908.28;5121182;27;19964;-80
2024/02/17 00:11:08;;;;;;;;;;;;;;;7.49;100.00;101915.72;5114262;27;19920;-80
2024/02/17 00:13:34;;;;;;;;;;;;;;;7.49;100.00;101919.25;5128886;27;19926;-80
2024/02/17 00:16:00;;;;;;;;;;;;;;;7.46;100.00;101924.06;5134796;27;19919;-80
2024/02/17 00:18:28;;;;;;;;;;;;;;;7.51;100.00;101924.47;5132654;27;20776;-80
2024/02/17 00:20:53;;;;;;;;;;;;;;;7.47;100.00;101933.78;5130330;27;19923;-80
2024/02/17 00:23:18;;;;;;;;;;;;;;;7.46;100.00;101934.78;5123830;27;20014;-81
2024/02/17 00:25:48;;;;;;;;;;;;;;;7.46;100.00;101932.09;5115460;27;19928;-80
2024/02/17 00:28:13;;;;;;;;;;;;;;;7.45;100.00;101939.31;5128991;27;20060;-80
2024/02/17 00:30:39;;;;;;;;;;;;;;;7.45;100.00;101939.31;5126195;27;20010;-80
2024/02/17 00:33:05;;;;;;;;;;;;;;;7.46;100.00;101940.13;5128092;27;19919;-80
2024/02/17 00:35:30;;;;;;;;;;;;;;;7.41;100.00;101936.06;5132663;27;20426;-80
2024/02/17 00:37:55;;;;;;;;;;;;;;;7.38;100.00;101933.72;5128563;27;20009;-80
2024/02/17 00:40:23;;;;;;;;;;;;;;;7.35;100.00;101939.34;5131907;27;20006;-80
2024/02/17 00:42:49;;;;;;;;;;;;;;;7.28;100.00;101948.97;5128738;27;19923;-80
2024/02/17 00:45:14;;;;;;;;;;;;;;;7.20;100.00;101943.53;5130150;27;19923;-80
2024/02/17 00:47:40;;;;;;;;;;;;;;;7.15;100.00;101949.28;5123375;27;19972;-80
2024/02/17 00:50:05;;;;;;;;;;;;;;;7.10;100.00;101946.22;5128019;27;19919;-80
2024/02/17 00:52:30;;;;;;;;;;;;;;;7.07;100.00;101951.88;5128326;27;19920;-80
2024/02/17 00:54:56;;;;;;;;;;;;;;;7.10;100.00;101955.09;5144506;27;19923;-79
2024/02/17 00:57:21;;;;;;;;;;;;;;;7.25;100.00;101951.94;5138463;27;19930;-80
2024/02/17 00:59:46;;;;;;;;;;;;;;;7.34;100.00;101955.56;5133752;27;20012;-80
2024/02/17 01:02:11;;;;;;;;;;;;;;;7.30;100.00;101957.69;5128124;27;19920;-80
2024/02/17 01:04:37;;;;;;;;;;;;;;;7.28;100.00;101957.00;5128598;27;19924;-80
2024/02/17 01:07:02;;;;;;;;;;;;;;;7.39;100.00;101964.88;5125768;27;19920;-80
2024/02/17 01:09:27;;;;;;;;;;;;;;;7.36;100.00;101962.47;5129905;27;19920;-80
2024/02/17 01:11:52;;;;;;;;;;;;;;;7.33;100.00;101961.91;5131146;27;19926;-80
2024/02/17 01:14:17;;;;;;;;;;;;;;;7.44;100.00;101970.59;5132046;27;20089;-81
2024/02/17 01:16:43;;;;;;;;;;;;;;;7.41;100.00;101970.06;5129261;27;19970;-81
2024/02/17 01:19:08;;;;;;;;;;;;;;;7.41;100.00;101970.88;5127559;27;19920;-80
2024/02/17 01:21:34;;;;;;;;;;;;;;;7.34;100.00;101972.50;5129657;27;19935;-80
2024/02/17 01:23:59;;;;;;;;;;;;;;;7.41;100.00;101970.06;5126648;27;19919;-80
2024/02/17 01:26:24;;;;;;;;;;;;;;;7.38;100.00;101991.78;5128792;27;20423;-80
2024/02/17 01:28:49;;;;;;;;;;;;;;;7.33;100.00;101984.19;5129470;27;20022;-80
2024/02/17 01:31:15;;;;;;;;;;;;;;;7.30;100.00;101991.69;5129993;27;19970;-80
2024/02/17 01:33:40;;;;;;;;;;;;;;;7.29;100.00;101990.81;5131448;27;19981;-80
2024/02/17 01:36:12;;;;;;;;;;;;;;;7.35;100.00;101990.25;5130793;27;20485;-80
2024/02/17 01:38:37;;;;;;;;;;;;;;;7.36;100.00;101991.94;5130183;27;19931;-80
2024/02/17 01:41:02;;;;;;;;;;;;;;;7.32;100.00;102000.44;5125306;27;19923;-80
2024/02/17 01:43:27;;;;;;;;;;;;;;;7.31;100.00;102007.59;5126099;27;19926;-80
2024/02/17 01:45:53;;;;;;;;;;;;;;;7.27;100.00;102003.53;5128074;27;19919;-80
2024/02/17 01:48:18;;;;;;;;;;;;;;;7.27;100.00;102012.41;5130073;27;19920;-80
2024/02/17 01:50:43;;;;;;;;;;;;;;;7.41;100.00;102012.91;5124422;27;19945;-80
2024/02/17 01:53:08;;;;;;;;;;;;;;;7.48;100.00;102007.81;5107845;27;19995;-80
2024/02/17 01:55:34;;;;;;;;;;;;;;;7.49;100.00;102015.72;5105733;28;19973;-80
2024/02/17 01:57:59;;;;;;;;;;;;;;;7.50;100.00;102005.84;5108397;27;19920;-80
2024/02/17 02:00:24;;;;;;;;;;;;;;;7.57;100.00;102023.03;5113943;27;19937;-80
2024/02/17 02:02:49;;;;;;;;;;;;;;;7.57;100.00;102025.69;5110572;27;19969;-80
2024/02/17 02:05:15;;;;;;;;;;;;;;;7.58;100.00;102027.38;5128151;27;20387;-80
2024/02/17 02:07:40;;;;;;;;;;;;;;;7.61;100.00;102024.38;5126469;27;19992;-80
2024/02/17 02:10:05;;;;;;;;;;;;;;;7.53;100.00;102032.34;5126178;27;19920;-80
2024/02/17 02:12:31;;;;;;;;;;;;;;;7.57;100.00;102028.38;5103922;27;20275;-80
2024/02/17 02:15:06;;;;;;;;;;;;;;;7.58;100.00;102033.56;5124251;27;20286;-80
2024/02/17 02:17:32;;;;;;;;;;;;;;;7.53;100.00;102032.34;5129182;27;19919;-80
2024/02/17 02:19:58;;;;;;;;;;;;;;;7.58;100.00;102030.06;5127057;27;19927;-80
2024/02/17 02:22:23;;;;;;;;;;;;;;;7.59;100.00;102037.09;5107707;27;20333;-80
2024/02/17 02:24:48;;;;;;;;;;;;;;;7.57;100.00;102036.41;5127253;27;19920;-80
2024/02/17 02:27:13;;;;;;;;;;;;;;;7.50;100.00;102038.00;5126786;27;19927;-80
2024/02/17 02:29:43;;;;;;;;;;;;;;;7.53;100.00;102035.03;5120709;27;19920;-81
2024/02/17 02:32:09;;;;;;;;;;;;;;;7.39;100.00;102033.66;5128025;27;19945;-80
2024/02/17 02:34:34;;;;;;;;;;;;;;;7.51;100.00;102035.16;5125852;27;19927;-80
2024/02/17 02:36:59;;;;;;;;;;;;;;;7.57;100.00;102033.75;5127208;27;19919;-80
2024/02/17 02:39:24;;;;;;;;;;;;;;;7.35;100.00;102042.97;5130335;27;19974;-80
2024/02/17 02:41:49;;;;;;;;;;;;;;;7.32;100.00;102049.47;5127757;27;20371;-80
2024/02/17 02:44:15;;;;;;;;;;;;;;;7.25;100.00;102049.22;5126306;27;20372;-80
2024/02/17 02:46:40;;;;;;;;;;;;;;;7.25;100.00;102051.03;5125400;27;20286;-80
2024/02/17 02:49:05;;;;;;;;;;;;;;;7.36;100.00;102061.59;5109358;27;19923;-80
2024/02/17 02:51:30;;;;;;;;;;;;;;;7.28;100.00;102059.66;5129768;27;19924;-80
2024/02/17 02:53:56;;;;;;;;;;;;;;;7.21;100.00;102073.75;5129863;27;19964;-80
2024/02/17 02:56:21;;;;;;;;;;;;;;;7.24;100.00;102068.09;5128405;27;19923;-80
2024/02/17 02:58:46;;;;;;;;;;;;;;;7.21;100.00;102061.19;5117164;27;20493;-80
2024/02/17 03:01:12;;;;;;;;;;;;;;;7.26;100.00;102063.44;5129256;27;19980;-80
2024/02/17 03:03:37;;;;;;;;;;;;;;;7.20;100.00;102074.75;5144046;27;19927;-80
2024/02/17 03:06:03;;;;;;;;;;;;;;;7.20;100.00;102077.44;5133404;27;20022;-80
2024/02/17 03:08:28;;;;;;;;;;;;;;;7.18;100.00;102082.06;5122937;27;19958;-80
2024/02/17 03:10:53;;;;;;;;;;;;;;;7.24;100.00;102081.47;5123966;27;20320;-80
2024/02/17 03:13:18;;;;;;;;;;;;;;;7.21;100.00;102081.78;5127795;27;20313;-80
2024/02/17 03:15:43;;;;;;;;;;;;;;;7.12;100.00;102089.69;5130135;27;20278;-81
2024/02/17 03:18:09;;;;;;;;;;;;;;;7.09;100.00;102095.31;5127914;27;20387;-80
2024/02/17 03:20:34;;;;;;;;;;;;;;;7.08;100.00;102090.13;5124305;27;19974;-81
2024/02/17 03:22:59;;;;;;;;;;;;;;;7.09;100.00;102103.34;5126819;27;19930;-81
2024/02/17 03:25:24;;;;;;;;;;;;;;;7.07;100.00;102091.94;5126039;27;19923;-81
2024/02/17 03:27:50;;;;;;;;;;;;;;;7.11;100.00;102103.22;5125508;27;19919;-80
2024/02/17 03:30:15;;;;;;;;;;;;;;;7.12;100.00;102095.03;5122870;27;19919;-81
2024/02/17 03:32:40;;;;;;;;;;;;;;;7.08;100.00;102103.50;5125167;27;20602;-81
2024/02/17 03:35:06;;;;;;;;;;;;;;;7.06;100.00;102100.97;5130321;27;19919;-81
2024/02/17 03:37:31;;;;;;;;;;;;;;;7.05;100.00;102104.66;5127373;27;19915;-80
2024/02/17 03:39:57;;;;;;;;;;;;;;;7.09;100.00;102103.34;5127364;27;20072;-80
2024/02/17 03:42:23;;;;;;;;;;;;;;;7.05;100.00;102112.69;5128106;28;19923;-80
2024/02/17 03:44:48;;;;;;;;;;;;;;;7.03;100.00;102111.97;5129345;28;20267;-81
2024/02/17 03:47:13;;;;;;;;;;;;;;;7.04;100.00;102112.81;5123620;28;20309;-80
2024/02/17 03:49:39;;;;;;;;;;;;;;;7.04;100.00;102112.81;5130127;28;20016;-80
2024/02/17 03:52:04;;;;;;;;;;;;;;;7.04;100.00;102121.72;5127191;28;19963;-81
2024/02/17 03:54:29;;;;;;;;;;;;;;;7.04;100.00;102124.38;5125430;28;19926;-81
2024/02/17 03:56:54;;;;;;;;;;;;;;;7.06;100.00;102122.38;5127196;28;19930;-81
2024/02/17 03:59:19;;;;;;;;;;;;;;;7.10;100.00;102134.50;5127271;28;20002;-81
2024/02/17 04:01:45;;;;;;;;;;;;;;;7.13;100.00;102136.06;5127083;28;19969;-81
2024/02/17 04:04:10;;;;;;;;;;;;;;;7.16;100.00;102132.25;5126476;28;19959;-80
2024/02/17 04:06:35;;;;;;;;;;;;;;;7.18;100.00;102141.00;5130137;28;19954;-80
2024/02/17 04:09:00;;;;;;;;;;;;;;;7.18;100.00;102136.47;5124083;28;19919;-80
2024/02/17 04:11:26;;;;;;;;;;;;;;;7.19;100.00;102142.69;5124761;28;19930;-81
2024/02/17 04:13:51;;;;;;;;;;;;;;;7.17;100.00;102155.38;5127807;28;19916;-81
2024/02/17 04:16:16;;;;;;;;;;;;;;;7.20;100.00;102150.56;5124829;28;20808;-80
2024/02/17 04:18:41;;;;;;;;;;;;;;;7.16;100.00;102159.88;5126029;28;20002;-80
2024/02/17 04:21:07;;;;;;;;;;;;;;;7.16;100.00;102156.34;5128176;28;19971;-80
2024/02/17 04:23:32;;;;;;;;;;;;;;;7.10;100.00;102161.28;5124631;28;19912;-81
2024/02/17 04:26:00;;;;;;;;;;;;;;;7.08;100.00;102165.94;5125380;28;19949;-81
2024/02/17 04:28:25;;;;;;;;;;;;;;;7.08;100.00;102162.44;5120551;28;20010;-78
2024/02/17 04:30:50;;;;;;;;;;;;;;;7.10;100.00;102172.00;5129731;28;19943;-78
2024/02/17 04:33:15;;;;;;;;;;;;;;;7.09;100.00;102166.78;5124481;28;19919;-78
2024/02/17 04:35:43;;;;;;;;;;;;;;;7.10;100.00;102174.66;5122636;28;19926;-78
2024/02/17 04:38:08;;;;;;;;;;;;;;;7.08;100.00;102178.50;5124803;28;20355;-78
2024/02/17 04:40:34;;;;;;;;;;;;;;;7.05;100.00;102179.63;5129093;27;19962;-78
2024/02/17 04:43:00;;;;;;;;;;;;;;;7.05;100.00;102189.47;5130605;27;19923;-78
2024/02/17 04:45:25;;;;;;;;;;;;;;;7.05;100.00;102189.47;5126435;27;19964;-78
2024/02/17 04:47:51;;;;;;;;;;;;;;;7.02;100.00;102187.06;5122010;27;20264;-78
2024/02/17 04:50:16;;;;;;;;;;;;;;;7.05;100.00;102192.16;5128702;27;20302;-78
2024/02/17 04:52:41;;;;;;;;;;;;;;;7.05;100.00;102194.84;5126297;27;19919;-78
2024/02/17 04:55:07;;;;;;;;;;;;;;;7.08;100.00;102203.41;5131166;27;19934;-78
2024/02/17 04:57:32;;;;;;;;;;;;;;;7.07;100.00;102201.72;5125893;27;19933;-78
2024/02/17 04:59:57;;;;;;;;;;;;;;;7.08;100.00;102206.09;5126165;27;20294;-77
2024/02/17 05:02:23;;;;;;;;;;;;;;;7.06;100.00;102208.06;5120624;27;19928;-78
2024/02/17 05:04:48;;;;;;;;;;;;;;;7.13;100.00;102219.91;5127181;27;19924;-78
2024/02/17 05:07:13;;;;;;;;;;;;;;;7.19;100.00;102215.84;5125964;27;19920;-79
2024/02/17 05:09:39;;;;;;;;;;;;;;;7.15;100.00;102224.28;5130745;27;19919;-86
2024/02/17 05:12:04;;;;;;;;;;;;;;;7.09;100.00;102229.22;5141867;27;19939;-79
2024/02/17 05:14:29;;;;;;;;;;;;;;;7.07;100.00;102225.00;5134459;27;20003;-85
2024/02/17 05:16:55;;;;;;;;;;;;;;;7.06;100.00;102244.72;5134322;27;19920;-83
2024/02/17 05:19:20;;;;;;;;;;;;;;;7.09;100.00;102244.44;5132807;27;19919;-83
2024/02/17 05:21:45;;;;;;;;;;;;;;;7.05;100.00;102243.91;5126769;27;19927;-83
2024/02/17 05:24:10;;;;;;;;;;;;;;;7.04;100.00;102247.56;5129075;27;19915;-82
2024/02/17 05:26:39;;;;;;;;;;;;;;;7.09;100.00;102245.28;5131659;27;20275;-83
2024/02/17 05:29:07;;;;;;;;;;;;;;;7.11;100.00;102248.66;5114431;27;19915;-82
2024/02/17 05:31:33;;;;;;;;;;;;;;;7.25;100.00;102259.94;5128359;27;19927;-82
2024/02/17 05:33:58;;;;;;;;;;;;;;;7.19;100.00;102260.53;5127472;27;19919;-82
2024/02/17 05:36:24;;;;;;;;;;;;;;;7.11;100.00;102261.22;5127917;27;20355;-82
2024/02/17 05:38:49;;;;;;;;;;;;;;;7.12;100.00;102254.88;5126506;27;20394;-83
2024/02/17 05:41:15;;;;;;;;;;;;;;;7.13;100.00;102268.13;5124638;27;19920;-82
2024/02/17 05:43:40;;;;;;;;;;;;;;;7.26;100.00;102277.72;5132195;27;20351;-82
2024/02/17 05:46:05;;;;;;;;;;;;;;;7.16;100.00;102280.38;5127302;27;20288;-83
2024/02/17 05:48:30;;;;;;;;;;;;;;;7.12;100.00;102277.16;5130373;27;21708;-82
2024/02/17 05:50:55;;;;;;;;;;;;;;;7.07;100.00;102276.72;5125435;27;20302;-83
2024/02/17 05:53:21;;;;;;;;;;;;;;;7.04;100.00;102277.00;5128971;27;19926;-83
2024/02/17 05:55:46;;;;;;;;;;;;;;;7.03;100.00;102287.84;5124123;27;19924;-82
2024/02/17 05:58:11;;;;;;;;;;;;;;;7.05;100.00;102292.09;5131463;27;19919;-82
2024/02/17 06:00:37;;;;;;;;;;;;;;;7.03;100.00;102299.41;5129235;27;20010;-84
2024/02/17 06:03:02;;;;;;;;;;;;;;;7.03;100.00;102310.13;5128691;27;19923;-82
2024/02/17 06:05:28;;;;;;;;;;;;;;;7.02;100.00;102308.44;5128457;27;20010;-83
2024/02/17 06:07:56;;;;;;;;;;;;;;;7.05;100.00;102313.50;5132557;27;19927;-82
2024/02/17 06:10:22;;;;;;;;;;;;;;;7.05;100.00;102324.22;5128000;27;19942;-81
2024/02/17 06:12:48;;;;;;;;;;;;;;;7.08;100.00;102315.88;5129146;27;20351;-83
2024/02/17 06:15:16;;;;;;;;;;;;;;;7.06;100.00;102315.19;5128485;27;19919;-83
2024/02/17 06:17:43;;;;;;;;;;;;;;;7.08;100.00;102320.41;5127557;27;19955;-82
2024/02/17 06:22:55;;;;;;;;;;;;;;;7.08;100.00;102323.09;5113413;27;19934;-82
2024/02/17 06:25:22;;;;;;;;;;;;;;;7.09;100.00;102322.94;5131492;27;19923;-81
2024/02/17 06:27:47;;;;;;;;;;;;;;;7.10;100.00;102330.00;5127888;27;19919;-79
2024/02/17 06:30:14;;;;;;;;;;;;;;;7.17;100.00;102335.63;5128430;27;19942;-78
2024/02/17 06:32:39;;;;;;;;;;;;;;;7.16;100.00;102330.44;5125821;27;19968;-79
2024/02/17 06:35:05;;;;;;;;;;;;;;;7.12;100.00;102336.06;5128259;27;19981;-79
2024/02/17 06:37:30;;;;;;;;;;;;;;;7.12;100.00;102346.78;5129153;27;19943;-80
2024/02/17 06:39:55;;;;;;;;;;;;;;;7.12;100.00;102344.09;5126579;27;20410;-80
2024/02/17 06:42:20;;;;;;;;;;;;;;;7.13;100.00;102348.47;5126319;27;20406;-80
2024/02/17 06:44:46;;;;;;;;;;;;;;;7.15;100.00;102358.19;5126201;27;20387;-80
2024/02/17 06:47:11;;;;;;;;;;;;;;;7.14;100.00;102360.03;5126619;27;19930;-79
2024/02/17 06:49:36;;;;;;;;;;;;;;;7.15;100.00;102363.56;5121209;27;19931;-79
2024/02/17 06:52:01;;;;;;;;;;;;;;;7.15;100.00;102366.22;5127718;27;19920;-79
2024/02/17 06:54:27;;;;;;;;;;;;;;;7.15;100.00;102367.06;5122956;27;19987;-80
2024/02/17 06:56:52;;;;;;;;;;;;;;;7.16;100.00;102371.44;5123894;27;19973;-80
2024/02/17 06:59:17;;;;;;;;;;;;;;;7.16;100.00;102375.97;5123264;27;20398;-81
2024/02/17 07:01:42;;;;;;;;;;;;;;;7.21;100.00;102382.59;5120902;27;20380;-80
2024/02/17 07:04:08;;;;;;;;;;;;;;;7.30;100.00;102377.41;5122007;27;19924;-81
2024/02/17 07:06:34;;;;;;;;;;;;;;;7.30;100.00;102375.56;5124270;27;20780;-81
2024/02/17 07:08:59;;;;;;;;;;;;;;;7.26;100.00;102376.81;5123599;27;19923;-81
2024/02/17 07:11:27;;;;;;;;;;;;;;;7.30;100.00;102378.25;5126220;27;19924;-81
2024/02/17 07:13:52;;;;;;;;;;;;;;;7.40;100.00;102387.19;5129096;27;19946;-83
2024/02/17 07:16:17;;;;;;;;;;;;;;;7.55;100.00;102373.38;5125659;27;20221;-82
2024/02/17 07:18:43;;;;;;;;;;;;;;;7.68;100.00;102373.94;5125069;27;20006;-81
2024/02/17 07:21:09;;;;;;;;;;;;;;;7.78;100.00;102373.94;5128880;27;19923;-81
2024/02/17 07:23:34;;;;;;;;;;;;;;;7.67;100.00;102382.97;5125835;27;20298;-82
2024/02/17 07:26:00;;;;;;;;;;;;;;;7.52;100.00;102389.72;5128455;27;19938;-82
2024/02/17 07:28:25;;;;;;;;;;;;;;;7.48;100.00;102412.41;5122632;27;19951;-82
2024/02/17 07:30:50;;;;;;;;;;;;;;;7.43;100.00;102421.72;5126089;27;20394;-79
2024/02/17 07:33:18;;;;;;;;;;;;;;;7.44;100.00;102426.09;5109241;27;20375;-82
2024/02/17 07:35:45;;;;;;;;;;;;;;;7.40;100.00;102438.09;5121313;27;19926;-81
2024/02/17 07:38:11;;;;;;;;;;;;;;;7.40;100.00;102435.41;5124701;27;19920;-82
2024/02/17 07:40:36;;;;;;;;;;;;;;;7.40;100.00;102437.22;5129223;27;19927;-82
2024/02/17 07:43:07;;;;;;;;;;;;;;;7.47;100.00;102445.56;5120908;27;20251;-80
2024/02/17 07:45:32;;;;;;;;;;;;;;;7.49;100.00;102449.81;5128769;28;20307;-81
2024/02/17 07:47:58;;;;;;;;;;;;;;;7.51;100.00;102463.06;5130469;28;19930;-80
2024/02/17 07:50:23;;;;;;;;;;;;;;;7.51;100.00;102455.84;5125513;28;19919;-81
2024/02/17 07:52:48;;;;;;;;;;;;;;;7.54;100.00;102462.78;5129079;28;19925;-81
2024/02/17 07:55:13;;;;;;;;;;;;;;;7.60;100.00;102462.22;5123672;28;19967;-80
2024/02/17 07:57:39;;;;;;;;;;;;;;;7.64;100.00;102473.53;5126297;28;19977;-80
2024/02/17 08:00:04;;;;;;;;;;;;;;;7.66;100.00;102474.25;5120395;28;19927;-81
2024/02/17 08:02:29;;;;;;;;;;;;;;;7.67;100.00;102479.47;5124110;28;21304;-82
2024/02/17 08:04:56;;;;;;;;;;;;;;;7.72;100.00;102487.09;5127147;28;20372;-82
2024/02/17 08:07:21;;;;;;;;;;;;;;;7.77;100.00;102478.63;5129680;28;19934;-82
2024/02/17 08:09:48;;;;;;;;;;;;;;;7.83;100.00;102483.44;5123737;28;19923;-82
2024/02/17 08:12:13;;;;;;;;;;;;;;;7.86;100.00;102488.53;5126300;28;19927;-82
2024/02/17 08:14:40;;;;;;;;;;;;;;;7.91;100.00;102497.03;5124350;27;19923;-82
2024/02/17 08:17:06;;;;;;;;;;;;;;;7.95;100.00;102493.06;5126155;27;19960;-82
2024/02/17 08:19:31;;;;;;;;;;;;;;;7.99;100.00;102496.31;5132412;27;20328;-82
2024/02/17 08:21:57;;;;;;;;;;;;;;;7.97;100.00;102507.16;5131887;27;19926;-82
2024/02/17 08:24:22;;;;;;;;;;;;;;;7.95;100.00;102509.13;5129174;27;20433;-81
2024/02/17 08:26:47;;;;;;;;;;;;;;;8.06;100.00;102520.75;5131913;27;19946;-81
2024/02/17 08:29:12;;;;;;;;;;;;;;;8.08;100.00;102524.16;5128473;27;19971;-81
2024/02/17 08:31:38;;;;;;;;;;;;;;;8.11;100.00;102527.38;5127580;27;20014;-81
2024/02/17 08:34:03;;;;;;;;;;;;;;;8.19;100.00;102534.75;5114385;27;20332;-80
2024/02/17 08:36:28;;;;;;;;;;;;;;;8.22;100.00;102531.78;5126041;27;20107;-81
2024/02/17 08:38:53;;;;;;;;;;;;;;;8.23;100.00;102532.63;5130593;27;19969;-80
2024/02/17 08:41:21;;;;;;;;;;;;;;;8.21;100.00;102532.75;5122890;27;19951;-81
2024/02/17 08:43:47;;;;;;;;;;;;;;;8.26;100.00;102537.72;5129534;27;19920;-81
2024/02/17 08:46:12;;;;;;;;;;;;;;;8.32;100.00;102532.63;5126105;27;19927;-81
2024/02/17 08:48:37;;;;;;;;;;;;;;;8.53;100.00;102544.25;5128106;27;20325;-81
2024/02/17 08:51:02;;;;;;;;;;;;;;;8.50;100.00;102548.06;5132151;27;19919;-81
2024/02/17 08:53:28;;;;;;;;;;;;;;;8.59;100.00;102549.91;5124315;27;19927;-81
2024/02/17 08:55:54;;;;;;;;;;;;;;;8.68;100.00;102553.56;5128373;27;19935;-80
2024/02/17 08:58:19;;;;;;;;;;;;;;;8.63;100.00;102556.69;5133061;27;19930;-81
2024/02/17 09:00:44;;;;;;;;;;;;;;;8.78;100.00;102558.94;5124236;27;19927;-82
2024/02/17 09:03:11;;;;;;;;;;;;;;;8.85;100.00;102560.03;5129625;27;19919;-82
2024/02/17 09:05:36;;;;;;;;;;;;;;;8.79;100.00;102556.09;5133172;27;19920;-82
2024/02/17 09:08:02;;;;;;;;;;;;;;;8.71;100.00;102563.19;5126728;27;19926;-82
2024/02/17 09:10:27;;;;;;;;;;;;;;;8.78;100.00;102569.69;5126446;27;19977;-82
2024/02/17 09:12:52;;;;;;;;;;;;;;;8.96;100.00;102569.78;5128869;27;20011;-82
2024/02/17 09:15:18;;;;;;;;;;;;;;;9.09;100.00;102572.19;5133427;27;19923;-82
2024/02/17 09:17:43;;;;;;;;;;;;;;;9.15;100.00;102587.72;5129183;27;19919;-81
2024/02/17 09:20:09;;;;;;;;;;;;;;;9.13;100.00;102580.78;5129153;27;19930;-81
2024/02/17 09:22:35;;;;;;;;;;;;;;;8.85;100.00;102600.34;5128626;27;19927;-81
2024/02/17 09:25:00;;;;;;;;;;;;;;;8.70;100.00;102601.75;5128605;27;19954;-81
2024/02/17 09:27:25;;;;;;;;;;;;;;;8.57;100.00;102610.94;5125753;27;20377;-81
2024/02/17 09:29:50;;;;;;;;;;;;;;;8.59;100.00;102603.59;5127792;27;19927;-81
2024/02/17 09:32:16;;;;;;;;;;;;;;;8.64;100.00;102611.22;5132502;27;19927;-82
2024/02/17 09:34:41;;;;;;;;;;;;;;;8.70;100.00;102607.13;5122909;27;19924;-81
2024/02/17 09:37:10;;;;;;;;;;;;;;;8.76;100.00;102614.63;5129621;27;19930;-81
2024/02/17 09:39:37;;;;;;;;;;;;;;;8.80;100.00;102614.19;5126199;27;20285;-81
2024/02/17 09:42:03;;;;;;;;;;;;;;;8.67;100.00;102620.81;5128243;27;19919;-81
2024/02/17 09:44:28;;;;;;;;;;;;;;;8.84;100.00;102616.59;5123458;27;19946;-81
2024/02/17 09:46:53;;;;;;;;;;;;;;;8.89;100.00;102617.88;5125657;27;19968;-80
2024/02/17 09:49:19;;;;;;;;;;;;;;;8.90;100.00;102622.25;5127741;27;19927;-81
2024/02/17 09:51:47;;;;;;;;;;;;;;;8.92;100.00;102622.97;5111997;27;19930;-81
2024/02/17 09:54:14;;;;;;;;;;;;;;;8.95;100.00;102625.38;5114799;27;20014;-81
2024/02/17 09:56:40;;;;;;;;;;;;;;;9.28;100.00;102622.34;5115469;27;19920;-80
2024/02/17 09:59:05;;;;;;;;;;;;;;;9.38;100.00;102623.19;5133716;27;20037;-81
2024/02/17 10:01:30;;;;;;;;;;;;;;;9.31;100.00;102630.09;5132514;27;19923;-82
2024/02/17 10:03:56;;;;;;;;;;;;;;;9.37;100.00;102637.59;5132435;27;19946;-82
2024/02/17 10:06:21;;;;;;;;;;;;;;;9.54;100.00;102633.31;5105971;27;19919;-81
2024/02/17 10:08:46;;;;;;;;;;;;;;;9.67;100.00;102640.22;5130037;27;19920;-83
2024/02/17 10:11:12;;;;;;;;;;;;;;;9.68;100.00;102641.91;5129813;27;20209;-81
2024/02/17 10:13:37;;;;;;;;;;;;;;;9.69;100.00;102643.63;5129643;27;19920;-82
2024/02/17 10:16:15;;;;;;;;;;;;;;;9.62;100.00;102653.25;5131359;27;19923;-83
2024/02/17 10:18:41;;;;;;;;;;;;;;;9.56;100.00;102650.13;5130708;27;20088;-83
2024/02/17 10:21:06;;;;;;;;;;;;;;;9.51;100.00;102649.75;5131807;27;20524;-80
2024/02/17 10:23:32;;;;;;;;;;;;;;;9.71;100.00;102652.34;5111810;27;19995;-81
2024/02/17 10:25:57;;;;;;;;;;;;;;;10.02;100.00;102646.72;5112968;27;19967;-81
2024/02/17 10:28:23;;;;;;;;;;;;;;;10.42;100.00;102650.09;5131053;27;19923;-80
2024/02/17 10:30:49;;;;;;;;;;;;;;;10.16;100.00;102645.38;5129805;27;19963;-82
2024/02/17 10:33:15;;;;;;;;;;;;;;;10.13;100.00;102651.06;5130586;27;19980;-81
2024/02/17 10:35:42;;;;;;;;;;;;;;;10.10;100.00;102643.28;5131813;27;20381;-79
2024/02/17 10:38:08;;;;;;;;;;;;;;;10.36;100.00;102661.41;5112247;27;20386;-80
2024/02/17 10:40:33;;;;;;;;;;;;;;;10.23;100.00;102669.88;5112335;27;19963;-80
2024/02/17 10:42:58;;;;;;;;;;;;;;;10.21;100.00;102666.47;5131461;27;19927;-81
2024/02/17 10:45:24;;;;;;;;;;;;;;;9.88;100.00;102668.75;5129518;27;19923;-81
2024/02/17 10:47:50;;;;;;;;;;;;;;;9.85;100.00;102676.13;5130072;27;19950;-81
2024/02/17 10:50:18;;;;;;;;;;;;;;;9.70;100.00;102669.50;5113154;27;19922;-81
2024/02/17 10:52:44;;;;;;;;;;;;;;;9.67;100.00;102669.81;5110984;27;19919;-80
2024/02/17 10:55:13;;;;;;;;;;;;;;;9.85;100.00;102675.25;5130625;27;20014;-81
2024/02/17 10:57:52;;;;;;;;;;;;;;;9.91;100.00;102674.66;5129947;27;19955;-81
2024/02/17 11:00:18;;;;;;;;;;;;;;;10.34;100.00;102680.41;5129588;27;19919;-80
2024/02/17 11:02:43;;;;;;;;;;;;;;;10.30;100.00;102682.56;5129648;27;20375;-81
2024/02/17 11:05:09;;;;;;;;;;;;;;;10.23;100.00;102683.31;5131676;27;19920;-79
2024/02/17 11:07:34;;;;;;;;;;;;;;;10.22;100.00;102687.84;5129814;27;19963;-81
2024/02/17 11:10:05;;;;;;;;;;;;;;;10.63;100.00;102692.03;5111623;27;20020;-80
2024/02/17 11:12:32;;;;;;;;;;;;;;;10.67;100.00;102699.66;5129799;27;20348;-81
2024/02/17 11:15:11;;;;;;;;;;;;;;;10.45;100.00;102691.00;5129911;27;19963;-81
2024/02/17 11:17:44;;;;;;;;;;;;;;;10.53;100.00;102698.31;5130189;27;20343;-81
2024/02/17 11:20:13;;;;;;;;;;;;;;;10.81;100.00;102695.59;5127609;27;20266;-80
2024/02/17 11:22:42;;;;;;;;;;;;;;;10.52;100.00;102696.63;5129561;27;20330;-80
2024/02/17 11:25:07;;;;;;;;;;;;;;;10.90;100.00;102691.16;5129378;27;20018;-80
2024/02/17 11:27:33;;;;;;;;;;;;;;;11.14;100.00;102703.13;5111129;27;20386;-81
2024/02/17 11:29:58;;;;;;;;;;;;;;;11.11;100.00;102695.38;5129582;27;19923;-81
2024/02/17 11:32:25;;;;;;;;;;;;;;;10.72;100.00;102705.44;5129514;27;19932;-81
2024/02/17 11:34:50;;;;;;;;;;;;;;;10.69;100.00;102699.50;5132184;27;19923;-82
2024/02/17 11:37:16;;;;;;;;;;;;;;;10.49;100.00;102694.25;5132759;27;19985;-80
2024/02/17 11:39:41;;;;;;;;;;;;;;;10.53;100.00;102705.56;5117698;28;19930;-81
2024/02/17 11:42:06;;;;;;;;;;;;;;;10.79;100.00;102715.59;5113039;28;19942;-80
2024/02/17 11:44:35;;;;;;;;;;;;;;;10.82;100.00;102704.53;5129901;28;19930;-81
2024/02/17 11:47:00;;;;;;;;;;;;;;;10.89;100.00;102719.09;5129014;28;19923;-81
2024/02/17 11:49:26;;;;;;;;;;;;;;;10.91;100.00;102711.72;5129136;27;19926;-81
2024/02/17 11:51:52;;;;;;;;;;;;;;;11.15;100.00;102715.63;5129490;28;19923;-82
2024/02/17 11:54:17;;;;;;;;;;;;;;;10.72;100.00;102724.31;5111499;28;19926;-81
2024/02/17 11:56:43;;;;;;;;;;;;;;;10.55;100.00;102717.03;5129576;28;19919;-80
2024/02/17 11:59:09;;;;;;;;;;;;;;;10.53;100.00;102727.13;5125499;28;20426;-80
2024/02/17 12:01:35;;;;;;;;;;;;;;;10.41;100.00;102718.38;5110310;28;19919;-80
2024/02/17 12:04:00;;;;;;;;;;;;;;;10.38;100.00;102726.72;5119872;28;20423;-77
2024/02/17 12:06:25;;;;;;;;;;;;;;;10.91;100.00;102725.19;5129038;28;19919;-78
2024/02/17 12:08:50;;;;;;;;;;;;;;;10.97;100.00;102735.31;5128537;28;19930;-77
2024/02/17 12:11:17;;;;;;;;;;;;;;;10.91;100.00;102735.97;5130289;28;19919;-78
2024/02/17 12:13:42;;;;;;;;;;;;;;;11.07;100.00;102730.72;5129894;28;19919;-77
2024/02/17 12:16:09;;;;;;;;;;;;;;;10.98;100.00;102731.63;5128617;28;19980;-78
2024/02/17 12:18:38;;;;;;;;;;;;;;;10.96;100.00;102730.94;5128964;28;20252;-80
2024/02/17 12:21:06;;;;;;;;;;;;;;;10.96;100.00;102743.56;5129228;28;19972;-79
2024/02/17 12:23:31;;;;;;;;;;;;;;;10.91;100.00;102731.41;5127798;28;19920;-79
2024/02/17 12:25:57;;;;;;;;;;;;;;;10.77;100.00;102730.06;5130337;28;19926;-79
2024/02/17 12:28:25;;;;;;;;;;;;;;;10.79;100.00;102729.06;5129714;28;20006;-79
2024/02/17 12:30:50;;;;;;;;;;;;;;;10.76;100.00;102733.78;5128393;28;20055;-79